This is the latest recevied weather packets stored in our database for station/object K0SDS. If no packets are shown the sender has not sent any weather packets the latest 10 day(s).
| Time | Temp. | Humidity | Pressure | Rain* | Wind** | Luminosity | Snow |
|---|---|---|---|---|---|---|---|
| 1778129278 | 8.33° C | 84% | 1017.5 hPa | 0 mm | - | 0 W/m² | - |
| 1778128974 | 8.89° C | 75% | 1017.5 hPa | 0 mm | - | 0 W/m² | - |
| 1778128670 | 8.89° C | 71% | 1017.5 hPa | 0 mm | - | 0 W/m² | - |
| 1778128367 | 8.33° C | 73% | 1017.5 hPa | 0 mm | - | 0 W/m² | - |
| 1778128063 | 7.78° C | 76% | 1017.5 hPa | 0 mm | - | 0 W/m² | - |
| 1778127758 | 7.78° C | 80% | 1017.5 hPa | 0 mm | - | 0 W/m² | - |
| 1778127457 | 7.78° C | 81% | 1017.4 hPa | 0 mm | - | 0 W/m² | - |
| 1778127153 | 7.78° C | 81% | 1017.5 hPa | 0 mm | - | 0 W/m² | - |
| 1778126850 | 7.78° C | 82% | 1017.5 hPa | 0 mm | - | 0 W/m² | - |
| 1778126546 | 7.78° C | 83% | 1017.4 hPa | 0 mm | - | 0 W/m² | - |
| 1778126242 | 7.22° C | 83% | 1017.4 hPa | 0 mm | - | 0 W/m² | - |
| 1778125937 | 7.22° C | 84% | 1017.4 hPa | 0 mm | - | 0 W/m² | - |
| 1778125635 | 7.22° C | 84% | 1017.8 hPa | 0 mm | - | 0 W/m² | - |
| 1778125332 | 7.22° C | 84% | 1017.3 hPa | 0 mm | - | 0 W/m² | - |
| 1778125031 | 6.67° C | 85% | 1017.7 hPa | 0 mm | - | 0 W/m² | - |
| 1778124727 | 6.67° C | 84% | 1017.8 hPa | 0 mm | - | 0 W/m² | - |
| 1778124425 | 6.67° C | 83% | 1017.7 hPa | 0 mm | - | 0 W/m² | - |
| 1778124120 | 6.11° C | 83% | 1017.7 hPa | 0 mm | - | 0 W/m² | - |
| 1778123817 | 6.11° C | 82% | 1017.9 hPa | 0 mm | - | 0 W/m² | - |
| 1778123514 | 6.11° C | 82% | 1017.7 hPa | 0 mm | - | 0 W/m² | - |
| 1778123211 | 6.11° C | 82% | 1017.7 hPa | 0 mm | - | 0 W/m² | - |
| 1778122909 | 6.67° C | 80% | 1017.4 hPa | 0 mm | - | 0 W/m² | - |
| 1778122606 | 6.67° C | 79% | 1017.5 hPa | 0 mm | - | 0 W/m² | - |
| 1778122303 | 6.67° C | 78% | 1017.4 hPa | 0 mm | - | 0 W/m² | - |
| 1778122001 | 6.67° C | 77% | 1017.4 hPa | 0 mm | - | 0 W/m² | - |
* Rain latest hour (hover to see other rain measurements)
** Current wind speed in m/s (hover to see current wind gust speed)